createdAt,value
2022-09-06T00:00:46.947Z,99000.16
2022-09-06T00:03:35.343Z,99002.31
2022-09-06T00:06:23.714Z,99005.50
2022-09-06T00:09:13.317Z,98999.00
2022-09-06T00:12:01.634Z,98994.19
2022-09-06T00:14:50.037Z,98991.41
2022-09-06T00:17:38.332Z,98993.03
2022-09-06T00:20:27.468Z,98985.47
2022-09-06T00:23:16.254Z,98994.06
2022-09-06T00:26:06.689Z,98981.00
2022-09-06T00:28:54.986Z,98986.94
2022-09-06T00:31:43.297Z,98985.91
2022-09-06T00:34:31.538Z,98986.44
2022-09-06T00:37:19.841Z,98978.19
2022-09-06T00:40:09.627Z,98974.59
2022-09-06T00:42:59.385Z,98975.22
2022-09-06T00:45:47.855Z,98982.09
2022-09-06T00:48:38.835Z,98981.03
2022-09-06T00:51:29.693Z,98975.72
2022-09-06T00:54:18.047Z,98978.63
2022-09-06T00:57:06.801Z,98987.28
2022-09-06T00:59:57.673Z,98982.78
2022-09-06T01:02:46.084Z,98986.75
2022-09-06T01:05:43.602Z,98985.22
2022-09-06T01:08:54.570Z,98985.91
2022-09-06T01:11:54.888Z,98988.84
2022-09-06T01:14:57.131Z,99000.50
2022-09-06T01:17:56.145Z,98992.44
2022-09-06T01:20:56.682Z,98992.81
2022-09-06T01:24:17.821Z,98988.34
2022-09-06T01:27:42.748Z,98977.81
2022-09-06T01:30:34.868Z,98973.50
2022-09-06T01:33:31.153Z,98983.28
2022-09-06T01:36:25.905Z,98979.22
2022-09-06T01:39:27.877Z,98977.59
2022-09-06T01:42:19.260Z,98977.47
2022-09-06T01:45:12.301Z,98977.13
2022-09-06T01:48:10.567Z,98972.28
2022-09-06T01:51:11.028Z,98965.31
2022-09-06T01:54:16.660Z,98969.34
2022-09-06T01:57:16.294Z,98963.25
2022-09-06T02:00:09.277Z,98968.44
2022-09-06T02:03:10.491Z,98962.28
2022-09-06T02:06:04.514Z,98962.41
2022-09-06T02:08:57.154Z,98960.47
2022-09-06T02:11:50.764Z,98964.56
2022-09-06T02:14:44.502Z,98958.19
2022-09-06T02:17:35.516Z,98955.22
2022-09-06T02:20:27.991Z,98955.84
2022-09-06T02:23:17.652Z,98948.53
2022-09-06T02:26:11.050Z,98952.16
2022-09-06T02:28:59.431Z,98954.31
2022-09-06T02:31:54.758Z,98951.75
2022-09-06T02:34:46.193Z,98949.94
2022-09-06T02:37:36.210Z,98948.75
2022-09-06T02:40:25.320Z,98944.88
2022-09-06T02:43:13.698Z,98943.28
2022-09-06T02:46:02.079Z,98946.94
2022-09-06T02:48:50.414Z,98939.94
2022-09-06T02:51:39.497Z,98942.03
2022-09-06T02:54:29.146Z,98939.47
2022-09-06T02:57:17.373Z,98944.47
2022-09-06T03:00:06.800Z,98936.56
2022-09-06T03:02:55.852Z,98939.91
2022-09-06T03:05:47.742Z,98938.28
2022-09-06T03:08:36.606Z,98938.56
2022-09-06T03:11:26.250Z,98933.38
2022-09-06T03:14:16.307Z,98930.63
2022-09-06T03:17:05.353Z,98928.06
2022-09-06T03:19:53.645Z,98932.09
2022-09-06T03:22:42.054Z,98931.50
2022-09-06T03:25:30.327Z,98932.75
2022-09-06T03:28:21.147Z,98928.47
2022-09-06T03:31:09.511Z,98936.56
2022-09-06T03:33:57.817Z,98932.88
2022-09-06T03:36:46.058Z,98926.53
2022-09-06T03:39:34.377Z,98930.13
2022-09-06T03:42:22.943Z,98925.84
2022-09-06T03:45:12.653Z,98934.16
2022-09-06T03:48:00.927Z,98936.16
2022-09-06T03:50:50.982Z,98933.81
2022-09-06T03:53:39.247Z,98936.38
2022-09-06T03:56:27.564Z,98928.72
2022-09-06T03:59:15.777Z,98931.69
2022-09-06T04:02:06.601Z,98927.19
2022-09-06T04:04:55.695Z,98933.50
2022-09-06T04:07:44.465Z,98930.44
2022-09-06T04:10:32.860Z,98930.66
2022-09-06T04:13:21.306Z,98928.16
2022-09-06T04:16:09.628Z,98924.25
2022-09-06T04:19:00.895Z,98933.53
2022-09-06T04:21:49.229Z,98933.81
2022-09-06T04:24:37.951Z,98934.47
2022-09-06T04:27:26.201Z,98938.31
2022-09-06T04:30:14.521Z,98937.63
2022-09-06T04:33:02.815Z,98929.31
2022-09-06T04:35:53.172Z,98937.25
2022-09-06T04:38:43.447Z,98936.47
2022-09-06T04:41:31.681Z,98945.75
2022-09-06T04:44:20.163Z,98940.59
2022-09-06T04:47:12.828Z,98937.72
2022-09-06T04:50:01.079Z,98936.88
2022-09-06T04:52:50.719Z,98942.84
2022-09-06T04:55:39.590Z,98940.38
2022-09-06T04:58:27.893Z,98946.09
2022-09-06T05:01:16.980Z,98940.38
2022-09-06T05:04:05.219Z,98943.09
2022-09-06T05:07:01.200Z,98940.03
2022-09-06T05:09:50.846Z,98950.50
2022-09-06T05:12:43.611Z,98936.72
2022-09-06T05:15:33.702Z,98938.72
2022-09-06T05:18:22.296Z,98944.88
2022-09-06T05:21:10.602Z,98944.88
2022-09-06T05:23:58.947Z,98941.13
2022-09-06T05:26:48.691Z,98944.38
2022-09-06T05:29:36.976Z,98948.75
2022-09-06T05:32:25.410Z,98952.91
2022-09-06T05:35:13.931Z,98947.78
2022-09-06T05:38:02.282Z,98952.13
2022-09-06T05:40:50.643Z,98949.03
2022-09-06T05:43:40.325Z,98956.78
2022-09-06T05:46:28.682Z,98955.44
2022-09-06T05:49:17.035Z,98959.66
2022-09-06T05:52:05.368Z,98959.09
2022-09-06T05:54:53.620Z,98959.16
2022-09-06T05:57:42.008Z,98961.22
2022-09-06T06:00:31.730Z,98963.25
2022-09-06T06:03:20.166Z,98961.94
2022-09-06T06:06:08.839Z,98969.47
2022-09-06T06:08:57.538Z,98969.78
2022-09-06T06:11:45.907Z,98958.13
2022-09-06T06:14:34.167Z,98967.38
2022-09-06T06:17:24.069Z,98956.88
2022-09-06T06:20:12.330Z,98963.00
2022-09-06T06:23:00.608Z,98954.97
2022-09-06T06:25:49.103Z,98967.25
2022-09-06T06:28:38.097Z,98966.53
2022-09-06T06:31:26.408Z,98956.44
2022-09-06T06:34:16.533Z,98957.84
2022-09-06T06:37:04.939Z,98960.47
2022-09-06T06:39:53.273Z,98963.78
2022-09-06T06:42:41.627Z,98953.19
2022-09-06T06:45:29.980Z,98954.19
2022-09-06T06:48:18.740Z,98959.19
2022-09-06T06:51:08.837Z,98961.59
2022-09-06T06:53:57.941Z,98959.06
2022-09-06T06:56:46.217Z,98965.44
2022-09-06T06:59:34.570Z,98972.50
2022-09-06T07:02:22.985Z,98972.56
2022-09-06T07:08:21.027Z,98975.09
2022-09-06T07:11:11.075Z,98977.13
2022-09-06T07:13:59.323Z,98972.28
2022-09-06T07:16:47.837Z,98963.91
2022-09-06T07:22:44.470Z,98965.13
2022-09-06T07:25:34.431Z,98972.78
2022-09-06T07:28:23.726Z,98961.53
2022-09-06T07:34:20.936Z,98976.28
2022-09-06T07:37:09.353Z,98973.97
2022-09-06T07:39:57.690Z,98988.97
2022-09-06T07:42:47.442Z,98979.66
2022-09-06T07:45:35.998Z,98979.13
2022-09-06T07:48:24.382Z,98978.91
2022-09-06T07:51:14.666Z,98983.88
2022-09-06T07:54:26.348Z,98984.41
2022-09-06T07:57:12.174Z,98983.03
2022-09-06T08:00:01.933Z,98979.41
2022-09-06T08:03:00.120Z,98982.25
2022-09-06T08:08:59.998Z,98973.97
2022-09-06T08:11:48.969Z,98969.44
2022-09-06T08:14:37.470Z,98975.78
2022-09-06T08:17:27.145Z,98974.47
2022-09-06T08:20:15.542Z,98962.94
2022-09-06T08:23:04.760Z,98965.13
2022-09-06T08:25:59.265Z,98972.28
2022-09-06T08:28:48.104Z,98970.38
2022-09-06T08:31:38.086Z,98963.97
2022-09-06T08:34:27.937Z,98964.38
2022-09-06T08:37:16.256Z,98953.09
2022-09-06T08:40:05.168Z,98953.34
2022-09-06T08:42:53.628Z,98950.44
2022-09-06T08:45:42.895Z,98950.06
2022-09-06T08:48:33.844Z,98939.91
2022-09-06T08:51:57.453Z,98952.84
2022-09-06T08:54:53.263Z,98951.88
2022-09-06T08:58:00.720Z,98941.56
2022-09-06T09:00:53.279Z,98954.47
2022-09-06T09:03:44.575Z,98955.34
2022-09-06T09:06:33.757Z,98954.75
2022-09-06T09:09:23.471Z,98956.25
2022-09-06T09:12:17.258Z,98955.34
2022-09-06T09:15:10.699Z,98936.72
2022-09-06T09:17:58.982Z,98937.81
2022-09-06T09:20:47.380Z,98929.41
2022-09-06T09:23:36.137Z,98929.63
2022-09-06T09:26:28.100Z,98929.22
2022-09-06T09:29:17.288Z,98923.69
2022-09-06T09:32:05.963Z,98920.69
2022-09-06T09:34:54.413Z,98914.63
2022-09-06T09:37:46.533Z,98930.72
2022-09-06T09:40:39.919Z,98916.88
2022-09-06T09:43:31.896Z,98902.19
2022-09-06T09:46:33.232Z,98904.84
2022-09-06T09:49:30.679Z,98898.22
2022-09-06T09:52:25.852Z,98896.13
2022-09-06T09:55:14.066Z,98896.91
2022-09-06T09:58:02.527Z,98888.72
2022-09-06T10:01:11.417Z,98889.97
2022-09-06T10:07:20.191Z,98875.59
2022-09-06T10:10:13.876Z,98878.72
2022-09-06T10:13:09.985Z,98873.22
2022-09-06T10:16:03.938Z,98879.25
2022-09-06T10:18:52.929Z,98861.03
2022-09-06T10:21:41.282Z,98849.72
2022-09-06T10:24:38.762Z,98859.03
2022-09-06T10:27:28.761Z,98850.66
2022-09-06T10:30:17.465Z,98851.91
2022-09-06T10:33:17.951Z,98851.75
2022-09-06T10:36:07.135Z,98849.31
2022-09-06T10:39:03.513Z,98850.81
2022-09-06T10:42:03.939Z,98843.72
2022-09-06T10:45:12.966Z,98848.66
2022-09-06T10:48:05.383Z,98849.03
2022-09-06T10:50:58.585Z,98845.06
2022-09-06T10:53:51.772Z,98850.13
2022-09-06T10:56:45.195Z,98840.59
2022-09-06T10:59:37.505Z,98834.66
2022-09-06T11:02:39.427Z,98845.34
2022-09-06T11:05:38.210Z,98839.44
2022-09-06T11:08:51.159Z,98843.16
2022-09-06T11:11:46.011Z,98831.84
2022-09-06T11:14:36.461Z,98833.88
2022-09-06T11:17:34.014Z,98833.22
2022-09-06T11:20:31.946Z,98829.63
2022-09-06T11:23:49.609Z,98827.34
2022-09-06T11:26:44.614Z,98816.63
2022-09-06T11:29:34.468Z,98820.66
2022-09-06T11:32:35.390Z,98810.25
2022-09-06T11:35:26.430Z,98814.78
2022-09-06T11:38:24.815Z,98813.84
2022-09-06T11:41:18.551Z,98810.69
2022-09-06T11:44:08.110Z,98799.13
2022-09-06T11:47:03.448Z,98799.03
2022-09-06T11:49:52.575Z,98794.63
2022-09-06T11:53:12.985Z,98789.56
2022-09-06T11:56:29.376Z,98794.47
2022-09-06T11:59:33.321Z,98800.47
2022-09-06T12:02:35.362Z,98792.22
2022-09-06T12:05:30.014Z,98800.66
2022-09-06T12:08:33.059Z,98800.31
2022-09-06T12:11:34.554Z,98795.22
2022-09-06T12:14:36.027Z,98783.84
2022-09-06T12:17:25.496Z,98783.25
2022-09-06T12:20:52.429Z,98778.25
2022-09-06T12:23:44.329Z,98769.91
2022-09-06T12:26:54.472Z,98779.50
2022-09-06T12:29:55.051Z,98774.69
2022-09-06T12:32:46.549Z,98771.25
2022-09-06T12:38:55.642Z,98772.56
2022-09-06T12:41:50.064Z,98762.22
2022-09-06T12:44:40.356Z,98757.88
2022-09-06T12:47:32.200Z,98774.34
2022-09-06T12:50:24.122Z,98752.06
2022-09-06T12:53:24.691Z,98752.75
2022-09-06T12:56:13.649Z,98742.84
2022-09-06T12:59:27.319Z,98735.00
2022-09-06T13:02:20.706Z,98736.22
2022-09-06T13:05:12.869Z,98736.47
2022-09-06T13:08:04.435Z,98735.88
2022-09-06T13:10:54.224Z,98736.00
2022-09-06T13:13:48.658Z,98736.97
2022-09-06T13:16:43.404Z,98735.41
2022-09-06T13:19:34.771Z,98740.09
2022-09-06T13:22:41.225Z,98729.28
2022-09-06T13:25:29.564Z,98734.97
2022-09-06T13:28:29.672Z,98720.59
2022-09-06T13:31:22.194Z,98715.16
2022-09-06T13:34:11.855Z,98713.03
2022-09-06T13:37:03.389Z,98720.31
2022-09-06T13:39:52.379Z,98717.13
2022-09-06T13:42:40.810Z,98714.63
2022-09-06T13:45:31.097Z,98708.13
2022-09-06T13:48:29.008Z,98703.56
2022-09-06T13:51:19.361Z,98703.56
2022-09-06T13:54:10.631Z,98704.09
2022-09-06T13:56:59.254Z,98693.78
2022-09-06T13:59:47.521Z,98691.72
2022-09-06T14:02:35.964Z,98679.06
2022-09-06T14:05:24.499Z,98686.63
2022-09-06T14:08:14.240Z,98686.81
2022-09-06T14:11:02.765Z,98684.22
2022-09-06T14:13:51.085Z,98686.38
2022-09-06T14:16:39.415Z,98694.97
2022-09-06T14:19:27.835Z,98683.31
2022-09-06T14:22:16.151Z,98680.38
2022-09-06T14:25:07.571Z,98686.09
2022-09-06T14:27:55.801Z,98682.22
2022-09-06T14:30:44.128Z,98671.41
2022-09-06T14:33:32.546Z,98671.16
2022-09-06T14:36:23.352Z,98683.38
2022-09-06T14:39:11.585Z,98670.31
2022-09-06T14:42:01.241Z,98674.75
2022-09-06T14:44:49.517Z,98668.50
2022-09-06T14:47:37.757Z,98665.16
2022-09-06T14:50:26.037Z,98664.00
2022-09-06T14:53:38.938Z,98659.59
2022-09-06T14:56:24.552Z,98663.44
2022-09-06T14:59:14.645Z,98670.50
2022-09-06T15:02:02.919Z,98663.34
2022-09-06T15:04:51.199Z,98662.53
2022-09-06T15:07:40.445Z,98666.56
2022-09-06T15:10:28.776Z,98664.38
2022-09-06T15:13:17.056Z,98668.59
2022-09-06T15:16:07.853Z,98673.72
2022-09-06T15:18:56.374Z,98666.03
2022-09-06T15:21:44.653Z,98665.84
2022-09-06T15:24:33.693Z,98669.34
2022-09-06T15:27:22.646Z,98654.47
2022-09-06T15:30:11.792Z,98659.75
2022-09-06T15:33:01.454Z,98656.41
2022-09-06T15:35:55.405Z,98649.69
2022-09-06T15:38:47.440Z,98650.56
2022-09-06T15:41:39.298Z,98643.31
2022-09-06T15:44:27.597Z,98655.66
2022-09-06T15:47:15.910Z,98652.81
2022-09-06T15:50:07.174Z,98653.06
2022-09-06T15:52:55.444Z,98644.53
2022-09-06T15:55:59.295Z,98651.22
2022-09-06T15:58:48.120Z,98648.22
2022-09-06T16:01:36.915Z,98646.56
2022-09-06T16:04:25.383Z,98643.88
2022-09-06T16:07:15.207Z,98650.53
2022-09-06T16:10:03.728Z,98647.31
2022-09-06T16:12:53.017Z,98646.06
2022-09-06T16:15:41.790Z,98647.78
2022-09-06T16:18:31.918Z,98643.81
2022-09-06T16:21:24.030Z,98646.88
2022-09-06T16:24:15.636Z,98643.84
2022-09-06T16:27:04.057Z,98635.41
2022-09-06T16:29:52.751Z,98632.00
2022-09-06T16:32:41.111Z,98641.41
2022-09-06T16:35:29.456Z,98634.44
2022-09-06T16:38:18.392Z,98631.91
2022-09-06T16:41:14.509Z,98636.38
2022-09-06T16:44:03.343Z,98633.69
2022-09-06T16:46:53.527Z,98630.94
2022-09-06T16:49:41.966Z,98631.56
2022-09-06T16:52:30.351Z,98634.25
2022-09-06T16:55:18.789Z,98622.34
2022-09-06T16:58:08.552Z,98629.38
2022-09-06T17:00:57.155Z,98634.50
2022-09-06T17:03:45.546Z,98635.00
2022-09-06T17:06:38.298Z,98633.94
2022-09-06T17:09:26.684Z,98627.75
2022-09-06T17:12:17.603Z,98623.78
2022-09-06T17:15:08.924Z,98624.13
2022-09-06T17:17:56.270Z,98622.44
2022-09-06T17:20:55.882Z,98616.44
2022-09-06T17:23:44.335Z,98619.72
2022-09-06T17:26:34.013Z,98623.88
2022-09-06T17:29:22.906Z,98626.47
2022-09-06T17:32:12.558Z,98632.75
2022-09-06T17:35:01.081Z,98636.50
2022-09-06T17:37:49.478Z,98639.81
2022-09-06T17:40:37.978Z,98644.13
2022-09-06T17:43:26.295Z,98644.38
2022-09-06T17:46:14.938Z,98642.53
2022-09-06T17:49:05.476Z,98640.31
2022-09-06T17:51:53.965Z,98646.00
2022-09-06T17:54:42.493Z,98646.97
2022-09-06T17:57:30.759Z,98654.19
2022-09-06T18:00:19.454Z,98649.75
2022-09-06T18:03:07.915Z,98648.41
2022-09-06T18:06:03.806Z,98648.03
2022-09-06T18:08:54.503Z,98662.25
2022-09-06T18:11:45.699Z,98655.00
2022-09-06T18:14:34.425Z,98656.56
2022-09-06T18:17:24.102Z,98658.59
2022-09-06T18:20:14.099Z,98656.78
2022-09-06T18:23:04.093Z,98655.47
2022-09-06T18:25:57.541Z,98655.50
2022-09-06T18:28:46.064Z,98664.38
2022-09-06T18:31:34.562Z,98669.91
2022-09-06T18:34:23.175Z,98658.56
2022-09-06T18:37:12.370Z,98675.34
2022-09-06T18:40:02.222Z,98680.44
2022-09-06T18:42:50.662Z,98678.44
2022-09-06T18:45:39.009Z,98674.31
2022-09-06T18:48:27.444Z,98684.84
2022-09-06T18:51:16.427Z,98682.59
2022-09-06T18:54:04.786Z,98673.38
2022-09-06T18:56:54.492Z,98664.03
2022-09-06T18:59:42.879Z,98661.25
2022-09-06T19:02:31.398Z,98662.31
2022-09-06T19:05:20.712Z,98665.84
2022-09-06T19:08:08.960Z,98662.22
2022-09-06T19:11:01.980Z,98670.28
2022-09-06T19:13:54.725Z,98668.66
2022-09-06T19:16:43.120Z,98664.75
2022-09-06T19:19:31.530Z,98670.00
2022-09-06T19:22:20.135Z,98665.75
2022-09-06T19:25:10.861Z,98668.53
2022-09-06T19:27:59.242Z,98662.44
2022-09-06T19:30:48.965Z,98665.75
2022-09-06T19:33:37.442Z,98657.91
2022-09-06T19:36:27.781Z,98661.53
2022-09-06T19:39:17.496Z,98665.91
2022-09-06T19:42:06.313Z,98655.50
2022-09-06T19:44:54.776Z,98656.84
2022-09-06T19:47:45.125Z,98660.69
2022-09-06T19:50:34.501Z,98658.69
2022-09-06T19:53:22.824Z,98661.75
2022-09-06T19:56:12.021Z,98654.66
2022-09-06T19:59:02.229Z,98648.56
2022-09-06T20:01:50.565Z,98639.97
2022-09-06T20:04:40.260Z,98639.97
2022-09-06T20:07:28.611Z,98650.16
2022-09-06T20:10:17.174Z,98642.84
2022-09-06T20:13:05.586Z,98637.31
2022-09-06T20:15:54.647Z,98630.97
2022-09-06T20:18:43.316Z,98639.06
2022-09-06T20:21:33.300Z,98639.31
2022-09-06T20:24:21.704Z,98643.13
2022-09-06T20:27:09.961Z,98642.88
2022-09-06T20:29:59.243Z,98636.03
2022-09-06T20:32:47.555Z,98637.31
2022-09-06T20:35:35.891Z,98640.09
2022-09-06T20:38:25.917Z,98640.88
2022-09-06T20:41:16.229Z,98650.44
2022-09-06T20:44:04.868Z,98651.72
2022-09-06T20:46:53.253Z,98649.69
2022-09-06T20:49:41.578Z,98651.44
2022-09-06T20:52:30.414Z,98649.94
2022-09-06T20:55:20.257Z,98637.03
2022-09-06T20:58:08.599Z,98641.09
2022-09-06T21:00:57.734Z,98645.63
2022-09-06T21:03:46.236Z,98641.03
2022-09-06T21:06:36.177Z,98639.75
2022-09-06T21:09:24.818Z,98646.84
2022-09-06T21:12:14.470Z,98640.25
2022-09-06T21:15:03.087Z,98648.06
2022-09-06T21:17:54.205Z,98642.28
2022-09-06T21:20:42.889Z,98643.97
2022-09-06T21:23:33.405Z,98640.44
2022-09-06T21:26:22.874Z,98644.97
2022-09-06T21:29:12.996Z,98639.97
2022-09-06T21:32:04.457Z,98636.63
2022-09-06T21:34:53.032Z,98640.97
2022-09-06T21:37:44.281Z,98636.41
2022-09-06T21:40:35.385Z,98640.41
2022-09-06T21:43:24.857Z,98651.56
2022-09-06T21:46:17.983Z,98640.44
2022-09-06T21:49:08.537Z,98635.59
2022-09-06T21:51:57.179Z,98636.25
2022-09-06T21:54:48.129Z,98630.53
2022-09-06T21:57:36.660Z,98624.28
2022-09-06T22:00:28.439Z,98625.03
2022-09-06T22:03:18.785Z,98617.41
2022-09-06T22:06:11.645Z,98619.13
2022-09-06T22:09:02.422Z,98623.22
2022-09-06T22:11:52.914Z,98625.47
2022-09-06T22:14:41.821Z,98626.75
2022-09-06T22:17:30.907Z,98620.66
2022-09-06T22:20:22.210Z,98621.75
2022-09-06T22:23:11.186Z,98620.63
2022-09-06T22:26:04.624Z,98609.97
2022-09-06T22:28:56.043Z,98608.41
2022-09-06T22:31:44.896Z,98607.72
2022-09-06T22:34:34.422Z,98598.84
2022-09-06T22:37:24.450Z,98601.88
2022-09-06T22:40:13.420Z,98595.25
2022-09-06T22:43:02.556Z,98600.38
2022-09-06T22:45:52.092Z,98599.06
2022-09-06T22:48:41.255Z,98597.81
2022-09-06T22:51:30.022Z,98603.81
2022-09-06T22:54:20.072Z,98601.00
2022-09-06T22:57:08.743Z,98597.34
2022-09-06T22:59:57.546Z,98599.53
2022-09-06T23:02:46.304Z,98599.31
2022-09-06T23:05:35.066Z,98602.59
2022-09-06T23:08:23.802Z,98601.00
2022-09-06T23:11:16.065Z,98594.44
2022-09-06T23:14:05.352Z,98596.44
2022-09-06T23:16:53.962Z,98599.16
2022-09-06T23:19:42.688Z,98599.00
2022-09-06T23:22:31.755Z,98601.16
2022-09-06T23:25:20.492Z,98604.34
2022-09-06T23:28:10.515Z,98595.53
2022-09-06T23:30:59.229Z,98596.06
2022-09-06T23:33:47.977Z,98598.31
2022-09-06T23:36:36.744Z,98579.69
2022-09-06T23:39:25.408Z,98590.75
2022-09-06T23:42:14.140Z,98580.44
2022-09-06T23:45:04.214Z,98582.72
2022-09-06T23:47:52.894Z,98573.34
2022-09-06T23:50:41.659Z,98578.34
2022-09-06T23:53:30.613Z,98587.22
2022-09-06T23:56:19.240Z,98581.28
2022-09-06T23:59:07.980Z,98577.81
